Relevés horaires Crap Masegn (Suisse)


Relevés horaires à Crap Masegn - Mercredi 25 Avr. 2018
Heure UTC1 Température [°C] Vent [km/h] Hum. [%] Pres.4 [hPa] Visi. [Km] Nébu. [octa] Préc.5 [mm] Cond.
2m. Res. Ros. Dir.2 Vit. Moy. Raf.3
21:00 4.0 0.5 -1.3 O 14.8 -- 33.3 68 700(0.5/3h) -- -- -- --
20:00 4.2 0.8 -1.5 SO 14.8 -- 25.9 66 700(0.4/3h) -- -- -- --
19:00 4.6 0.1 -1.8 O 24.1 -- 33.3 63 700(-0.3/3h) -- -- -- --
18:00 5.3 0.8 -2.4 O 25.9 -- 48.2 57 700(-0.5/3h) -- -- -- --
17:00 5.6 2.8 -3.4 OSO 13.0 -- 24.1 52 700(-0.7/3h) -- -- -- --
16:00 6.0 4 -4.5 OSO 9.3 -- 25.9 47 700(-0.6/3h) -- -- -- --
15:00 5.9 2.9 -3.6 O 14.8 -- 27.8 50 700(-0.6/3h) -- -- -- --
14:00 5.7 2.6 -1.8 O 14.8 -- 27.8 58 700(-0.2/3h) -- -- -- --
13:00 5.4 1.5 -1.5 OSO 20.4 -- 27.8 61 700(0.1/3h) -- -- -- --
12:00 5.0 2.4 -0.1 OSO 11.1 -- 33.3 70 700(0.0/3h) -- -- -- --
11:00 4.1 1.7 0.2 O 9.3 -- 24.1 76 700(0.0/3h) -- -- -- --
10:00 3.6 -0.8 -0.1 OSO 20.4 -- 27.8 77 700(0.3/3h) -- -- -- --
09:00 3.2 -1.5 -0.3 OSO 22.2 -- 33.3 78 700(0.5/3h) -- -- -- --
08:00 3.1 -1.8 -0.8 OSO 24.1 -- 29.6 75 700(0.7/3h) -- -- -- --
07:00 3.0 -2 -1.3 OSO 24.1 -- 33.3 73 700(0.4/3h) -- -- -- --
06:00 2.9 -0.8 -1.2 OSO 14.8 -- 42.6 74 700(0.2/3h) -- -- -- --
05:00 2.3 -3.1 -1.1 OSO 25.9 -- 31.5 78 700(-0.5/3h) -- -- -- --
04:00 2.1 -2.9 -1.2 OSO 22.2 -- 33.3 79 700(-0.7/3h) -- -- -- --
03:00 2.3 -3.4 -0.9 O 29.6 -- 42.6 79 700(-0.9/3h) -- -- -- --
02:00 2.5 -3.2 -0.5 OSO 29.6 -- 42.6 81 700(-0.8/3h) -- -- -- --
01:00 2.3 -2.6 -0.3 O 22.2 -- 29.6 83 700 -- -- -- --
00:00 2.5 -2.8 0.1 O 25.9 -- 35.2 84 700(-0.8/3h) -- -- -- --

1 Coordinated Universal Time. Actuellement il est 00:00 locale et 22:00 UTC.

2 Le vent souffle depuis la direction indiquée vers la direction oposée.

3 Les rafales max. sont disponible 40 min après l'heure du relevé.

4 Pour les stations d'altitude (plus de 600m) le géopotentiel du niveau le plus proche de la pression obligatoire est indiqué.

5 Les stations disposant d'un diffuseur peuvent indiquer "trace". Cela signifie que des précipitations ont touchés le sol mais que la quantité est inférieure à 0.1 mm.

Récapitulatif de la journée
Température [°C] Vent [km/h] Ensoleillement4 [h] Precipitations totale5 [mm] Pression [Hpa]
Min1 Max.2 Moy.3 Max. Min Max.
1.9 6.5 0 48.2 0 h 0 min 0 700.0 700.0

1 Température minimale relevée entre 18:00 UTC la veille et 18:00 UTC le jour donné.

2 Température maximale relevée entre 06:00 UTC le jour donné et 06:00 UTC le lendemain.

3 Vent moyen de la journée basé sur les relevés horaires.

4 Ensoleillement en heures relevé entre 06:00 UTC la veille et 06:00 UTC le jour donné.

5 Précipitations totales tombées entre 06:00 UTC la jour donné et 06:00 UTC le lendemain.

Graphiques horaires